Time;durP1;ratioP1;P1;durP2;ratioP2;P2;SDS_P1;SDS_P2;PMS_P1;PMS_P2;Temp;Humidity;BMP_temperature;BMP_pressure;BME280_temperature;BME280_humidity;BME280_pressure;Samples;Min_cycle;Max_cycle;Signal;HPM_P1;HPM_P2
2022/09/26 00:00:41;;;;;;;12.27;10.35;;;;;;;;;;4996888;28;20053;-89
2022/09/26 00:03:08;;;;;;;15.90;9.57;;;;;;;;;;4995818;28;20058;-90
2022/09/26 00:05:36;;;;;;;10.38;9.10;;;;;;;;;;4996832;28;20060;-89
2022/09/26 00:08:04;;;;;;;12.70;8.90;;;;;;;;;;4995629;28;20529;-90
2022/09/26 00:10:31;;;;;;;12.75;9.18;;;;;;;;;;4995456;28;20061;-90
2022/09/26 00:12:59;;;;;;;13.32;9.57;;;;;;;;;;4994337;28;20054;-90
2022/09/26 00:15:26;;;;;;;10.77;9.35;;;;;;;;;;4995724;28;20129;-90
2022/09/26 00:17:53;;;;;;;18.98;10.63;;;;;;;;;;4996608;28;20494;-90
2022/09/26 00:20:20;;;;;;;15.00;10.32;;;;;;;;;;4995705;28;20058;-90
2022/09/26 00:22:47;;;;;;;13.77;10.90;;;;;;;;;;4996168;28;20050;-91
2022/09/26 00:25:15;;;;;;;12.18;9.35;;;;;;;;;;4995434;28;20058;-90
2022/09/26 00:27:42;;;;;;;12.52;9.77;;;;;;;;;;4996323;28;20410;-90
2022/09/26 00:30:10;;;;;;;12.05;9.55;;;;;;;;;;4995181;28;20069;-90
2022/09/26 00:32:37;;;;;;;12.93;8.95;;;;;;;;;;4995450;28;20042;-90
2022/09/26 00:35:04;;;;;;;15.43;9.45;;;;;;;;;;4995032;28;20051;-90
2022/09/26 00:37:35;;;;;;;20.80;11.38;;;;;;;;;;4995321;28;20150;-90
2022/09/26 00:40:02;;;;;;;13.43;9.20;;;;;;;;;;4995185;28;20050;-90
2022/09/26 00:42:29;;;;;;;14.93;9.85;;;;;;;;;;4995166;28;20046;-90
2022/09/26 00:44:58;;;;;;;11.57;10.15;;;;;;;;;;4994884;28;20054;-90
2022/09/26 00:47:44;;;;;;;11.18;9.00;;;;;;;;;;4994884;28;20487;-90
2022/09/26 00:50:34;;;;;;;11.13;9.50;;;;;;;;;;4995132;28;20490;-90
2022/09/26 00:53:17;;;;;;;15.82;10.50;;;;;;;;;;4969309;28;20046;-91
2022/09/26 00:55:47;;;;;;;11.98;9.55;;;;;;;;;;4996387;28;20047;-90
2022/09/26 00:58:18;;;;;;;11.10;9.55;;;;;;;;;;4994767;28;20494;-90
2022/09/26 01:00:46;;;;;;;11.52;10.43;;;;;;;;;;4995117;28;20054;-90
2022/09/26 01:03:15;;;;;;;12.80;10.35;;;;;;;;;;4995074;28;20100;-90
2022/09/26 01:05:42;;;;;;;15.73;10.15;;;;;;;;;;4995132;28;20057;-91
2022/09/26 01:08:10;;;;;;;13.45;8.57;;;;;;;;;;4995560;28;20414;-89
2022/09/26 01:10:38;;;;;;;18.08;9.93;;;;;;;;;;4994741;28;20061;-90
2022/09/26 01:13:07;;;;;;;10.13;8.80;;;;;;;;;;4994546;28;20050;-90
2022/09/26 01:15:35;;;;;;;9.02;8.13;;;;;;;;;;4994634;28;20061;-89
2022/09/26 01:18:02;;;;;;;11.43;9.98;;;;;;;;;;4994910;28;20517;-90
2022/09/26 01:20:39;;;;;;;11.48;9.30;;;;;;;;;;4995257;28;20110;-90
2022/09/26 01:23:06;;;;;;;9.85;8.85;;;;;;;;;;4995126;28;20057;-90
2022/09/26 01:25:36;;;;;;;9.80;8.90;;;;;;;;;;4994794;28;20410;-90
2022/09/26 01:28:08;;;;;;;13.95;9.15;;;;;;;;;;4994473;28;20053;-90
2022/09/26 01:30:51;;;;;;;9.70;8.30;;;;;;;;;;4994515;28;20050;-90
2022/09/26 01:33:26;;;;;;;9.75;8.75;;;;;;;;;;4994725;28;20491;-90
2022/09/26 01:35:56;;;;;;;9.45;8.60;;;;;;;;;;4995000;28;20053;-90
2022/09/26 01:38:29;;;;;;;13.55;8.57;;;;;;;;;;4995440;28;20050;-89
2022/09/26 01:41:15;;;;;;;9.88;8.40;;;;;;;;;;4994549;28;20085;-90
2022/09/26 01:43:49;;;;;;;9.93;8.93;;;;;;;;;;4994420;28;20047;-89
2022/09/26 01:46:31;;;;;;;11.20;9.90;;;;;;;;;;4993908;28;20084;-89
2022/09/26 01:49:08;;;;;;;11.55;9.02;;;;;;;;;;4994462;28;20050;-90
2022/09/26 01:51:38;;;;;;;10.55;8.25;;;;;;;;;;4995452;28;20054;-90
2022/09/26 01:54:11;;;;;;;8.82;7.93;;;;;;;;;;4994037;28;20133;-90
2022/09/26 01:56:39;;;;;;;9.23;8.27;;;;;;;;;;4994265;28;20483;-90
2022/09/26 01:59:09;;;;;;;8.40;7.65;;;;;;;;;;4994221;28;20058;-90
2022/09/26 02:01:44;;;;;;;9.63;8.73;;;;;;;;;;4994888;28;20050;-90
2022/09/26 02:04:14;;;;;;;10.38;8.98;;;;;;;;;;4993594;28;20072;-90
2022/09/26 02:07:05;;;;;;;11.40;8.88;;;;;;;;;;4993522;28;20052;-90
2022/09/26 02:09:32;;;;;;;11.07;9.07;;;;;;;;;;4967738;28;20050;-90
2022/09/26 02:12:03;;;;;;;12.25;9.27;;;;;;;;;;4994896;28;20398;-90
2022/09/26 02:14:33;;;;;;;13.30;9.38;;;;;;;;;;4994347;28;20054;-90
2022/09/26 02:17:10;;;;;;;10.60;8.93;;;;;;;;;;4993561;28;20050;-90
2022/09/26 02:19:43;;;;;;;13.98;10.00;;;;;;;;;;4993310;28;20483;-90
2022/09/26 02:22:10;;;;;;;9.38;8.48;;;;;;;;;;4993520;28;20054;-90
2022/09/26 02:24:37;;;;;;;11.75;10.00;;;;;;;;;;4994203;28;20422;-90
2022/09/26 02:27:05;;;;;;;11.18;9.30;;;;;;;;;;4994240;28;20386;-91
2022/09/26 02:29:33;;;;;;;11.98;9.82;;;;;;;;;;4993158;28;20058;-90
2022/09/26 02:32:22;;;;;;;13.43;9.70;;;;;;;;;;4993150;28;20054;-90
2022/09/26 02:34:50;;;;;;;16.23;10.13;;;;;;;;;;4976980;28;20068;-90
2022/09/26 02:37:19;;;;;;;10.15;9.05;;;;;;;;;;4992487;28;20046;-90
2022/09/26 02:39:48;;;;;;;12.52;9.85;;;;;;;;;;4993658;28;20058;-90
2022/09/26 02:42:16;;;;;;;14.70;10.18;;;;;;;;;;4993311;28;20042;-90
2022/09/26 02:44:48;;;;;;;14.15;9.95;;;;;;;;;;4993989;28;20502;-90
2022/09/26 02:47:27;;;;;;;73.63;44.72;;;;;;;;;;4994162;28;20046;-90
2022/09/26 02:50:16;;;;;;;60.05;37.35;;;;;;;;;;4992863;28;20051;-90
2022/09/26 02:52:55;;;;;;;14.20;12.13;;;;;;;;;;4994226;28;20062;-90
2022/09/26 02:55:38;;;;;;;33.13;23.48;;;;;;;;;;4993059;28;20134;-90
2022/09/26 02:58:08;;;;;;;23.47;17.17;;;;;;;;;;4994163;28;20047;-90
2022/09/26 03:00:59;;;;;;;16.55;13.88;;;;;;;;;;4993413;28;20054;-90
2022/09/26 03:03:47;;;;;;;11.55;8.45;;;;;;;;;;4992903;28;20046;-90
2022/09/26 03:06:18;;;;;;;10.38;7.85;;;;;;;;;;4976914;28;20050;-90
2022/09/26 03:08:47;;;;;;;12.63;8.18;;;;;;;;;;4993035;28;20046;-90
2022/09/26 03:11:18;;;;;;;12.73;8.00;;;;;;;;;;4992979;28;20061;-90
2022/09/26 03:13:45;;;;;;;9.55;8.25;;;;;;;;;;4992742;28;20094;-89
2022/09/26 03:16:15;;;;;;;8.77;7.88;;;;;;;;;;4992930;28;20050;-90
2022/09/26 03:18:52;;;;;;;12.00;7.55;;;;;;;;;;4994011;28;20057;-90
2022/09/26 03:21:19;;;;;;;8.70;7.80;;;;;;;;;;4993101;28;20499;-91
2022/09/26 03:23:46;;;;;;;9.73;6.85;;;;;;;;;;4994015;28;20145;-90
2022/09/26 03:26:17;;;;;;;13.23;7.22;;;;;;;;;;4992961;28;20046;-90
2022/09/26 03:28:45;;;;;;;7.25;6.53;;;;;;;;;;4993054;28;20054;-90
2022/09/26 03:31:12;;;;;;;7.82;6.22;;;;;;;;;;4992873;28;20065;-89
2022/09/26 03:33:41;;;;;;;9.13;6.75;;;;;;;;;;4993307;28;20453;-90
2022/09/26 03:36:08;;;;;;;7.35;6.10;;;;;;;;;;4992622;28;20447;-90
2022/09/26 03:38:38;;;;;;;7.00;5.82;;;;;;;;;;4992660;28;20053;-90
2022/09/26 03:41:08;;;;;;;6.22;5.72;;;;;;;;;;4993769;28;20058;-90
2022/09/26 03:43:42;;;;;;;6.65;6.05;;;;;;;;;;4993149;28;20058;-90
2022/09/26 03:46:11;;;;;;;10.00;6.28;;;;;;;;;;4993567;28;20051;-90
2022/09/26 03:48:38;;;;;;;7.97;6.55;;;;;;;;;;4995967;28;20046;-90
2022/09/26 03:51:07;;;;;;;7.38;5.57;;;;;;;;;;4995665;28;20054;-90
2022/09/26 03:53:36;;;;;;;5.13;4.72;;;;;;;;;;4996955;28;20057;-91
2022/09/26 03:56:09;;;;;;;5.10;4.60;;;;;;;;;;4996043;28;20061;-91
2022/09/26 03:58:39;;;;;;;9.07;7.25;;;;;;;;;;4995973;28;20046;-90
2022/09/26 04:01:26;;;;;;;16.95;9.45;;;;;;;;;;4996858;28;20050;-90
2022/09/26 04:03:53;;;;;;;11.93;9.13;;;;;;;;;;4996803;28;20055;-91
2022/09/26 04:06:20;;;;;;;9.48;8.30;;;;;;;;;;4996828;28;20058;-91
2022/09/26 04:08:50;;;;;;;10.80;7.75;;;;;;;;;;4995977;28;20137;-90
2022/09/26 04:11:21;;;;;;;7.88;6.40;;;;;;;;;;4995645;28;20046;-90
2022/09/26 04:13:51;;;;;;;7.68;6.57;;;;;;;;;;4996655;28;20057;-90
2022/09/26 04:16:21;;;;;;;7.47;6.32;;;;;;;;;;4995770;28;20046;-89
2022/09/26 04:18:49;;;;;;;8.68;6.55;;;;;;;;;;4995623;28;20046;-90
2022/09/26 04:21:17;;;;;;;13.23;7.38;;;;;;;;;;4995901;28;20057;-91
2022/09/26 04:23:44;;;;;;;9.57;6.85;;;;;;;;;;4995519;28;20054;-90
2022/09/26 04:26:12;;;;;;;11.73;10.50;;;;;;;;;;4996351;28;20055;-90
2022/09/26 04:28:48;;;;;;;11.73;10.55;;;;;;;;;;4996571;28;20053;-91
2022/09/26 04:31:22;;;;;;;19.65;12.98;;;;;;;;;;4995980;28;20066;-89
2022/09/26 04:33:57;;;;;;;13.55;11.70;;;;;;;;;;4995219;28;20133;-91
2022/09/26 04:36:24;;;;;;;15.73;10.93;;;;;;;;;;4995326;28;20057;-91
2022/09/26 04:38:55;;;;;;;14.23;9.25;;;;;;;;;;4996124;28;20513;-90
2022/09/26 04:41:22;;;;;;;12.70;7.80;;;;;;;;;;4995309;28;20050;-90
2022/09/26 04:43:49;;;;;;;8.32;6.90;;;;;;;;;;4995384;28;20426;-90
2022/09/26 04:46:17;;;;;;;7.72;6.93;;;;;;;;;;4996153;28;20046;-90
2022/09/26 04:48:50;;;;;;;9.05;7.03;;;;;;;;;;4995970;28;20054;-91
2022/09/26 04:51:18;;;;;;;13.73;9.10;;;;;;;;;;4994996;28;20384;-90
2022/09/26 04:53:45;;;;;;;11.00;9.27;;;;;;;;;;4994920;28;20050;-90
2022/09/26 04:56:13;;;;;;;17.15;8.85;;;;;;;;;;4995829;28;20046;-90
2022/09/26 04:58:40;;;;;;;13.32;8.88;;;;;;;;;;4994359;28;20050;-91
2022/09/26 05:01:09;;;;;;;16.58;11.07;;;;;;;;;;4994928;28;20050;-90
2022/09/26 05:03:37;;;;;;;16.75;10.77;;;;;;;;;;4995943;28;20130;-91
2022/09/26 05:06:06;;;;;;;16.23;10.40;;;;;;;;;;4994746;28;20058;-90
2022/09/26 05:08:34;;;;;;;16.17;11.00;;;;;;;;;;4995780;28;20054;-90
2022/09/26 05:11:02;;;;;;;14.82;10.82;;;;;;;;;;4994698;28;20487;-90
2022/09/26 05:13:29;;;;;;;12.80;10.00;;;;;;;;;;4995020;28;20054;-90
2022/09/26 05:16:01;;;;;;;11.93;10.07;;;;;;;;;;4994725;28;20417;-89
2022/09/26 05:18:29;;;;;;;14.95;10.43;;;;;;;;;;4994453;28;20097;-91
2022/09/26 05:20:56;;;;;;;13.30;10.80;;;;;;;;;;4995388;28;20482;-91
2022/09/26 05:26:46;;;;;;;14.77;10.30;;;;;;;;;;4995244;28;20114;-90
2022/09/26 05:29:15;;;;;;;15.80;10.50;;;;;;;;;;4935274;29;20047;-89
2022/09/26 05:31:43;;;;;;;12.60;9.20;;;;;;;;;;4984100;28;20202;-90
2022/09/26 05:34:11;;;;;;;17.67;10.00;;;;;;;;;;4994347;28;20042;-91
2022/09/26 05:36:45;;;;;;;15.32;9.50;;;;;;;;;;4994323;28;20050;-90
2022/09/26 05:41:58;;;;;;;12.65;9.80;;;;;;;;;;4995136;28;20050;-90
2022/09/26 05:44:27;;;;;;;14.85;9.27;;;;;;;;;;4992675;28;20054;-90
2022/09/26 05:46:55;;;;;;;16.70;10.13;;;;;;;;;;4994964;28;20054;-90
2022/09/26 05:49:24;;;;;;;11.82;8.77;;;;;;;;;;4994228;28;20133;-90
2022/09/26 05:51:52;;;;;;;12.48;9.05;;;;;;;;;;4993710;28;20124;-90
2022/09/26 05:54:20;;;;;;;10.38;8.43;;;;;;;;;;4993778;28;20138;-89
2022/09/26 05:56:47;;;;;;;14.20;8.30;;;;;;;;;;4993741;28;20046;-90
2022/09/26 05:59:14;;;;;;;16.02;7.72;;;;;;;;;;4993880;28;20137;-90
2022/09/26 06:01:41;;;;;;;10.90;7.47;;;;;;;;;;4993771;28;20417;-89
2022/09/26 06:04:09;;;;;;;15.10;8.95;;;;;;;;;;4994055;28;20521;-91
2022/09/26 06:06:36;;;;;;;11.73;8.30;;;;;;;;;;4994434;28;20061;-90
2022/09/26 06:09:05;;;;;;;11.73;9.13;;;;;;;;;;4993624;28;20090;-90
2022/09/26 06:11:33;;;;;;;12.65;8.13;;;;;;;;;;4994383;28;20054;-90
2022/09/26 06:14:00;;;;;;;14.95;9.40;;;;;;;;;;4994427;28;20078;-91
2022/09/26 06:16:27;;;;;;;13.75;9.38;;;;;;;;;;4993752;28;20146;-90
2022/09/26 06:18:55;;;;;;;19.88;10.50;;;;;;;;;;4993144;28;20129;-89
2022/09/26 06:21:22;;;;;;;14.02;9.02;;;;;;;;;;4993559;28;20050;-90
2022/09/26 06:23:50;;;;;;;17.23;11.05;;;;;;;;;;4993700;28;20061;-91
2022/09/26 06:26:22;;;;;;;9.95;8.73;;;;;;;;;;4997218;28;20092;-89
2022/09/26 06:29:01;;;;;;;11.35;9.07;;;;;;;;;;4999896;28;20490;-90
2022/09/26 06:31:30;;;;;;;16.00;10.70;;;;;;;;;;4993311;28;20062;-90
2022/09/26 06:33:57;;;;;;;19.27;10.75;;;;;;;;;;4993979;28;20046;-90
2022/09/26 06:36:30;;;;;;;17.73;10.55;;;;;;;;;;4993436;28;20047;-90
2022/09/26 06:38:57;;;;;;;20.50;9.88;;;;;;;;;;4993639;28;20601;-90
2022/09/26 06:41:25;;;;;;;16.20;9.93;;;;;;;;;;4993520;28;20384;-89
2022/09/26 06:43:54;;;;;;;12.70;9.27;;;;;;;;;;4993297;28;20053;-90
2022/09/26 06:46:23;;;;;;;53.60;15.05;;;;;;;;;;4993221;28;20050;-90
2022/09/26 06:48:51;;;;;;;37.15;13.40;;;;;;;;;;4993118;28;20054;-91
2022/09/26 06:51:18;;;;;;;54.30;14.88;;;;;;;;;;4993511;28;20132;-89
2022/09/26 06:53:46;;;;;;;14.68;9.50;;;;;;;;;;4993360;28;20129;-88
2022/09/26 06:56:13;;;;;;;12.63;8.40;;;;;;;;;;4993233;28;20096;-88
2022/09/26 06:58:40;;;;;;;8.98;8.02;;;;;;;;;;4993004;28;20412;-88
2022/09/26 07:01:08;;;;;;;12.63;7.53;;;;;;;;;;4994227;28;20050;-90
2022/09/26 07:03:35;;;;;;;10.30;7.45;;;;;;;;;;4994180;28;20054;-89
2022/09/26 07:06:07;;;;;;;12.13;5.55;;;;;;;;;;4993192;28;20395;-89
2022/09/26 07:08:36;;;;;;;7.60;4.32;;;;;;;;;;4993238;28;20451;-88
2022/09/26 07:11:23;;;;;;;9.88;3.35;;;;;;;;;;4993956;28;20046;-86
2022/09/26 07:14:16;;;;;;;10.85;3.25;;;;;;;;;;4993080;28;20112;-88
2022/09/26 07:16:44;;;;;;;8.60;2.13;;;;;;;;;;4993378;28;20521;-88
2022/09/26 07:19:11;;;;;;;2.35;1.90;;;;;;;;;;4993583;28;20479;-86
2022/09/26 07:21:39;;;;;;;5.30;2.47;;;;;;;;;;4994162;28;20218;-88
2022/09/26 07:24:07;;;;;;;3.42;1.77;;;;;;;;;;4997396;28;20483;-88
2022/09/26 07:26:37;;;;;;;4.25;2.15;;;;;;;;;;4996718;28;20050;-89
2022/09/26 07:29:04;;;;;;;8.23;2.30;;;;;;;;;;4996790;28;20077;-88
2022/09/26 07:31:31;;;;;;;3.22;1.58;;;;;;;;;;4997606;28;20050;-89
2022/09/26 07:33:58;;;;;;;2.75;1.42;;;;;;;;;;4996557;28;20082;-89
2022/09/26 07:36:25;;;;;;;8.32;1.63;;;;;;;;;;4996555;28;20051;-89
2022/09/26 07:38:52;;;;;;;7.88;1.38;;;;;;;;;;4996668;28;20054;-89
2022/09/26 07:41:19;;;;;;;10.43;1.77;;;;;;;;;;4996670;28;20046;-89
2022/09/26 07:43:47;;;;;;;13.63;1.77;;;;;;;;;;4996628;28;20426;-90
2022/09/26 07:52:19;;;;;;;5.97;1.40;;;;;;;;;;4997014;28;20062;-91
2022/09/26 07:54:46;;;;;;;12.88;2.10;;;;;;;;;;4996445;28;20050;-90
2022/09/26 07:57:14;;;;;;;6.00;1.23;;;;;;;;;;4996065;28;20054;-90
2022/09/26 07:59:41;;;;;;;1.45;1.00;;;;;;;;;;4996291;28;20054;-92
2022/09/26 08:02:21;;;;;;;3.25;1.00;;;;;;;;;;4996032;28;20065;-89
2022/09/26 08:04:49;;;;;;;2.92;1.02;;;;;;;;;;4996064;28;20085;-89
2022/09/26 08:07:16;;;;;;;1.23;0.88;;;;;;;;;;4995904;28;20054;-91
2022/09/26 08:09:43;;;;;;;3.17;0.85;;;;;;;;;;4998296;28;20046;-91
2022/09/26 08:12:13;;;;;;;3.47;0.90;;;;;;;;;;4996455;28;20096;-91
2022/09/26 08:14:42;;;;;;;2.55;1.10;;;;;;;;;;4995921;28;20050;-90
2022/09/26 08:17:13;;;;;;;3.92;1.27;;;;;;;;;;4997532;28;20054;-89
2022/09/26 08:19:40;;;;;;;1.90;1.30;;;;;;;;;;4996928;28;20050;-91
2022/09/26 08:22:13;;;;;;;1.27;1.17;;;;;;;;;;4997990;28;20054;-91
2022/09/26 08:24:42;;;;;;;3.50;1.40;;;;;;;;;;5003941;28;20447;-91
2022/09/26 08:27:12;;;;;;;6.55;1.52;;;;;;;;;;4995952;28;20046;-90
2022/09/26 08:29:46;;;;;;;3.08;1.55;;;;;;;;;;4997807;28;20062;-91
2022/09/26 08:32:13;;;;;;;2.08;0.93;;;;;;;;;;4995705;28;20051;-92
2022/09/26 08:34:40;;;;;;;4.82;1.40;;;;;;;;;;4994893;28;20055;-93
2022/09/26 08:37:08;;;;;;;2.25;1.45;;;;;;;;;;4995718;28;20054;-91
2022/09/26 08:39:35;;;;;;;2.75;1.10;;;;;;;;;;4995931;28;20054;-93
2022/09/26 08:42:16;;;;;;;1.80;1.20;;;;;;;;;;4995373;28;20058;-91
2022/09/26 08:44:44;;;;;;;4.07;1.50;;;;;;;;;;4995433;28;20046;-91
2022/09/26 08:47:34;;;;;;;4.97;1.15;;;;;;;;;;4995305;28;20062;-91
2022/09/26 08:50:32;;;;;;;5.55;1.42;;;;;;;;;;4996161;28;20057;-88
2022/09/26 08:53:01;;;;;;;3.50;1.48;;;;;;;;;;4929123;28;20046;-90
2022/09/26 08:55:52;;;;;;;5.60;1.45;;;;;;;;;;4995939;28;20050;-90
2022/09/26 08:58:25;;;;;;;3.10;1.40;;;;;;;;;;4980472;28;20517;-93
2022/09/26 09:00:57;;;;;;;3.70;1.20;;;;;;;;;;4995110;28;20050;-93
2022/09/26 09:03:27;;;;;;;3.45;1.50;;;;;;;;;;4997325;28;20081;-91
2022/09/26 09:06:05;;;;;;;3.00;1.40;;;;;;;;;;4994928;28;20050;-90
2022/09/26 09:08:47;;;;;;;4.57;1.52;;;;;;;;;;4996624;28;20054;-90
2022/09/26 09:11:20;;;;;;;4.97;1.50;;;;;;;;;;4996410;28;20046;-90
2022/09/26 09:13:47;;;;;;;2.95;1.38;;;;;;;;;;4995861;28;20050;-93
2022/09/26 09:16:14;;;;;;;3.00;1.00;;;;;;;;;;4995121;28;20076;-94
2022/09/26 09:18:53;;;;;;;5.82;1.90;;;;;;;;;;4995959;28;20057;-96
2022/09/26 09:21:27;;;;;;;3.55;1.20;;;;;;;;;;4996700;28;20054;-93
2022/09/26 09:23:54;;;;;;;1.95;1.13;;;;;;;;;;4997817;28;20050;-94
2022/09/26 09:26:30;;;;;;;2.20;1.17;;;;;;;;;;4996455;28;20072;-93
2022/09/26 09:29:29;;;;;;;11.63;1.73;;;;;;;;;;4996633;28;20057;-94
2022/09/26 09:32:02;;;;;;;2.88;1.48;;;;;;;;;;4995565;28;20525;-93
2022/09/26 09:34:38;;;;;;;4.77;1.40;;;;;;;;;;4997321;28;20053;-92
2022/09/26 09:37:10;;;;;;;3.30;1.45;;;;;;;;;;4995280;28;20428;-89
2022/09/26 09:39:41;;;;;;;3.58;1.35;;;;;;;;;;4994774;28;20056;-91
2022/09/26 09:42:21;;;;;;;7.78;1.70;;;;;;;;;;4994372;28;20133;-90
2022/09/26 09:44:57;;;;;;;3.38;1.35;;;;;;;;;;4994385;28;20395;-89
2022/09/26 09:47:28;;;;;;;2.92;1.40;;;;;;;;;;4994652;28;20096;-91
2022/09/26 09:49:58;;;;;;;7.70;1.52;;;;;;;;;;4995826;28;20110;-91
2022/09/26 09:52:47;;;;;;;2.40;1.05;;;;;;;;;;4995322;28;20046;-90
2022/09/26 09:55:33;;;;;;;4.47;1.40;;;;;;;;;;4995703;28;20050;-90
2022/09/26 09:58:06;;;;;;;3.75;1.67;;;;;;;;;;4995179;28;20054;-90
2022/09/26 10:00:37;;;;;;;6.40;1.65;;;;;;;;;;4995344;28;20050;-91
2022/09/26 10:03:25;;;;;;;5.65;1.60;;;;;;;;;;4994048;28;20051;-90
2022/09/26 10:05:56;;;;;;;4.32;1.45;;;;;;;;;;4994751;28;20047;-89
2022/09/26 10:08:30;;;;;;;2.60;1.45;;;;;;;;;;4994163;28;20050;-90
2022/09/26 10:10:58;;;;;;;2.13;1.30;;;;;;;;;;4994862;28;20456;-91
2022/09/26 10:13:31;;;;;;;2.13;1.35;;;;;;;;;;4994217;28;20140;-91
2022/09/26 10:16:00;;;;;;;5.90;1.35;;;;;;;;;;4995542;28;20474;-91
2022/09/26 10:18:27;;;;;;;2.35;1.10;;;;;;;;;;4994222;28;20054;-91
2022/09/26 10:21:18;;;;;;;3.70;1.45;;;;;;;;;;4994736;28;20042;-94
2022/09/26 10:23:54;;;;;;;4.55;1.58;;;;;;;;;;4994489;28;20046;-91
2022/09/26 10:26:24;;;;;;;5.22;1.42;;;;;;;;;;4994817;28;20054;-88
2022/09/26 10:29:00;;;;;;;5.55;1.52;;;;;;;;;;4993670;28;20101;-89
2022/09/26 10:31:28;;;;;;;1.70;1.30;;;;;;;;;;4994183;28;20081;-88
2022/09/26 10:33:58;;;;;;;3.63;1.30;;;;;;;;;;4994104;28;20056;-88
2022/09/26 10:36:30;;;;;;;2.60;1.10;;;;;;;;;;4993401;28;20050;-89
2022/09/26 10:42:05;;;;;;;9.05;1.92;;;;;;;;;;4994677;28;20046;-89
2022/09/26 10:44:35;;;;;;;7.57;2.00;;;;;;;;;;4994235;28;20054;-88
2022/09/26 10:47:07;;;;;;;3.53;1.80;;;;;;;;;;4993047;28;20046;-89
2022/09/26 10:49:50;;;;;;;7.22;2.33;;;;;;;;;;4993189;28;20499;-88
2022/09/26 10:52:26;;;;;;;5.25;1.27;;;;;;;;;;4993264;28;20043;-87
2022/09/26 10:54:58;;;;;;;3.53;1.10;;;;;;;;;;4993581;28;20058;-88
2022/09/26 10:57:29;;;;;;;3.55;1.30;;;;;;;;;;4994828;28;20053;-88
2022/09/26 11:00:00;;;;;;;2.67;1.23;;;;;;;;;;4996964;28;20061;-89
2022/09/26 11:02:27;;;;;;;3.78;1.40;;;;;;;;;;4997863;28;20061;-89
2022/09/26 11:07:46;;;;;;;3.97;1.25;;;;;;;;;;4997893;28;20049;-89
2022/09/26 11:10:14;;;;;;;3.78;1.40;;;;;;;;;;4997755;28;20052;-87
2022/09/26 11:12:55;;;;;;;2.58;1.40;;;;;;;;;;4996594;28;20089;-88
2022/09/26 11:15:22;;;;;;;10.63;2.60;;;;;;;;;;4997508;28;20046;-89
2022/09/26 11:17:51;;;;;;;3.40;1.38;;;;;;;;;;4997851;28;20050;-88
2022/09/26 11:20:36;;;;;;;1.13;0.95;;;;;;;;;;4997100;28;20439;-89
2022/09/26 11:23:26;;;;;;;2.83;1.00;;;;;;;;;;4996339;28;20046;-89
2022/09/26 11:26:05;;;;;;;2.45;1.25;;;;;;;;;;4996478;28;20057;-90
2022/09/26 11:28:35;;;;;;;6.43;1.48;;;;;;;;;;4996725;28;20054;-88
2022/09/26 11:31:05;;;;;;;3.58;0.95;;;;;;;;;;4996570;28;20061;-89
2022/09/26 11:33:33;;;;;;;6.95;2.00;;;;;;;;;;4996912;28;20104;-90
2022/09/26 11:36:09;;;;;;;3.90;1.10;;;;;;;;;;4996247;28;20050;-88
2022/09/26 11:38:46;;;;;;;2.08;1.10;;;;;;;;;;4996507;28;20052;-89
2022/09/26 11:41:14;;;;;;;18.27;4.30;;;;;;;;;;4996047;28;20054;-88
2022/09/26 11:44:01;;;;;;;6.93;1.55;;;;;;;;;;4994976;28;20440;-90
2022/09/26 11:46:28;;;;;;;5.13;1.10;;;;;;;;;;4995815;28;20053;-87
2022/09/26 11:49:01;;;;;;;2.90;1.08;;;;;;;;;;4996332;28;20060;-89
2022/09/26 11:51:39;;;;;;;2.30;1.48;;;;;;;;;;4997001;28;20168;-88
2022/09/26 11:54:25;;;;;;;9.82;1.00;;;;;;;;;;4995987;28;20501;-89
2022/09/26 11:57:08;;;;;;;2.50;1.27;;;;;;;;;;4996703;28;20407;-88
2022/09/26 11:59:51;;;;;;;4.22;1.60;;;;;;;;;;4996095;28;20487;-90
2022/09/26 12:02:22;;;;;;;11.52;1.63;;;;;;;;;;4996165;28;20046;-89
2022/09/26 12:04:52;;;;;;;2.90;1.00;;;;;;;;;;4995641;28;20066;-90
2022/09/26 12:07:33;;;;;;;2.25;0.82;;;;;;;;;;4995778;28;20046;-89
2022/09/26 12:10:03;;;;;;;2.63;0.88;;;;;;;;;;4996069;28;20050;-88
2022/09/26 12:12:41;;;;;;;3.47;1.10;;;;;;;;;;4995832;28;20391;-89
2022/09/26 12:15:22;;;;;;;7.22;1.10;;;;;;;;;;4995303;28;20046;-87
2022/09/26 12:18:11;;;;;;;6.13;1.25;;;;;;;;;;4995739;28;20057;-93
2022/09/26 12:20:39;;;;;;;1.88;0.90;;;;;;;;;;4995454;28;20050;-90
2022/09/26 12:23:22;;;;;;;2.40;1.10;;;;;;;;;;4996393;28;20050;-90
2022/09/26 12:25:55;;;;;;;2.33;0.95;;;;;;;;;;4995574;28;20050;-89
2022/09/26 12:28:24;;;;;;;3.65;1.10;;;;;;;;;;4994995;28;20125;-90
2022/09/26 12:31:00;;;;;;;4.53;1.30;;;;;;;;;;4994850;28;20065;-89
2022/09/26 12:33:33;;;;;;;4.30;0.85;;;;;;;;;;4996180;28;20482;-89
2022/09/26 12:36:20;;;;;;;5.13;1.20;;;;;;;;;;4995776;28;20058;-89
2022/09/26 12:38:47;;;;;;;2.60;0.82;;;;;;;;;;4996222;28;20057;-89
2022/09/26 12:41:49;;;;;;;3.77;1.13;;;;;;;;;;4995625;28;20054;-88
2022/09/26 12:44:39;;;;;;;7.68;1.83;;;;;;;;;;4996051;28;20050;-89
2022/09/26 12:47:17;;;;;;;5.55;1.20;;;;;;;;;;4995150;28;20054;-91
2022/09/26 12:50:03;;;;;;;4.25;1.50;;;;;;;;;;4996181;28;20510;-89
2022/09/26 12:52:33;;;;;;;13.18;3.50;;;;;;;;;;4997112;28;20158;-93
2022/09/26 12:55:23;;;;;;;1.58;1.10;;;;;;;;;;4995826;28;20054;-87
2022/09/26 12:58:09;;;;;;;5.90;1.60;;;;;;;;;;4998375;28;20049;-91
2022/09/26 13:00:44;;;;;;;3.72;1.60;;;;;;;;;;5002214;28;20058;-92
2022/09/26 13:03:31;;;;;;;35.85;6.97;;;;;;;;;;4996580;28;20132;-91
2022/09/26 13:06:07;;;;;;;5.88;2.00;;;;;;;;;;4996161;28;20058;-93
2022/09/26 13:08:43;;;;;;;1.85;1.00;;;;;;;;;;4996229;28;20125;-90
2022/09/26 13:11:17;;;;;;;3.65;1.10;;;;;;;;;;4995732;28;20090;-93
2022/09/26 13:14:07;;;;;;;5.43;2.00;;;;;;;;;;4995255;28;20046;-93
2022/09/26 13:17:09;;;;;;;1.75;1.02;;;;;;;;;;4995311;28;20069;-93
2022/09/26 13:19:43;;;;;;;16.85;4.10;;;;;;;;;;4948750;28;20047;-93
2022/09/26 13:22:26;;;;;;;1.92;1.08;;;;;;;;;;4997154;28;20050;-90
2022/09/26 13:25:01;;;;;;;3.60;1.23;;;;;;;;;;4995700;28;20050;-92
2022/09/26 13:27:35;;;;;;;2.58;0.77;;;;;;;;;;4995610;28;20290;-92
2022/09/26 13:30:04;;;;;;;14.52;1.98;;;;;;;;;;4995865;28;20066;-92
2022/09/26 13:32:39;;;;;;;14.10;3.05;;;;;;;;;;4995123;28;20073;-88
2022/09/26 13:35:16;;;;;;;11.60;2.42;;;;;;;;;;4994137;28;20509;-89
2022/09/26 13:38:04;;;;;;;32.83;5.93;;;;;;;;;;4994062;28;20061;-90
2022/09/26 13:40:49;;;;;;;15.77;2.60;;;;;;;;;;4994068;28;20109;-91
2022/09/26 13:43:19;;;;;;;8.32;2.10;;;;;;;;;;4994186;28;20050;-90
2022/09/26 13:46:19;;;;;;;7.85;2.05;;;;;;;;;;4995092;28;20065;-89
2022/09/26 13:49:07;;;;;;;3.03;0.85;;;;;;;;;;4965964;28;20053;-87
2022/09/26 13:51:37;;;;;;;2.45;0.80;;;;;;;;;;4994814;28;20050;-91
2022/09/26 13:54:26;;;;;;;1.15;0.57;;;;;;;;;;4994990;28;20054;-89
2022/09/26 13:56:54;;;;;;;1.58;0.68;;;;;;;;;;4995382;28;20093;-89
2022/09/26 13:59:33;;;;;;;1.42;0.60;;;;;;;;;;4994995;28;20488;-88
2022/09/26 14:02:27;;;;;;;1.75;0.63;;;;;;;;;;4994766;28;20081;-89
2022/09/26 14:05:13;;;;;;;1.95;0.63;;;;;;;;;;4994562;28;20461;-90
2022/09/26 14:10:36;;;;;;;1.77;0.60;;;;;;;;;;4994697;28;20056;-88
2022/09/26 14:13:12;;;;;;;1.20;0.70;;;;;;;;;;4993926;28;20072;-92
2022/09/26 14:15:44;;;;;;;3.35;1.05;;;;;;;;;;4994590;28;20065;-91
2022/09/26 14:18:35;;;;;;;3.20;0.90;;;;;;;;;;4994417;28;20065;-88
2022/09/26 14:21:11;;;;;;;2.88;0.75;;;;;;;;;;4994442;28;20050;-89
2022/09/26 14:24:04;;;;;;;2.92;1.00;;;;;;;;;;4993925;28;20046;-92
2022/09/26 14:26:41;;;;;;;2.72;0.80;;;;;;;;;;4950932;28;20043;-92
2022/09/26 14:29:26;;;;;;;2.65;0.50;;;;;;;;;;4994757;28;20065;-90
2022/09/26 14:32:19;;;;;;;0.45;0.38;;;;;;;;;;4993284;28;20050;-89
2022/09/26 14:34:58;;;;;;;5.80;1.58;;;;;;;;;;4993461;28;20069;-89
2022/09/26 14:37:39;;;;;;;1.75;0.40;;;;;;;;;;4993628;28;20133;-89
2022/09/26 14:40:06;;;;;;;0.70;0.40;;;;;;;;;;4994623;28;20133;-89
2022/09/26 14:42:37;;;;;;;3.38;0.50;;;;;;;;;;4994383;28;20129;-88
2022/09/26 14:45:05;;;;;;;3.83;1.10;;;;;;;;;;4994062;28;20050;-87
2022/09/26 14:47:42;;;;;;;1.05;0.40;;;;;;;;;;4994324;28;20058;-88
2022/09/26 14:50:16;;;;;;;0.50;0.50;;;;;;;;;;4994550;28;20042;-89
2022/09/26 14:53:02;;;;;;;3.58;0.93;;;;;;;;;;4993418;28;20046;-89
2022/09/26 14:55:32;;;;;;;0.70;0.70;;;;;;;;;;4993371;28;20403;-88
2022/09/26 14:58:17;;;;;;;3.30;0.70;;;;;;;;;;4994412;28;20042;-91
2022/09/26 15:00:50;;;;;;;0.50;0.50;;;;;;;;;;4994235;28;20057;-86
2022/09/26 15:03:17;;;;;;;3.10;0.80;;;;;;;;;;4992807;28;20050;-88
2022/09/26 15:05:45;;;;;;;0.75;0.50;;;;;;;;;;4992991;28;20054;-88
2022/09/26 15:08:30;;;;;;;1.27;0.50;;;;;;;;;;4993884;28;20047;-88
2022/09/26 15:11:02;;;;;;;1.23;0.57;;;;;;;;;;4993858;28;20089;-89
2022/09/26 15:13:32;;;;;;;2.05;1.35;;;;;;;;;;4993207;28;20410;-89
2022/09/26 15:16:06;;;;;;;1.27;1.00;;;;;;;;;;4994772;28;20050;-90
2022/09/26 15:18:39;;;;;;;0.68;0.68;;;;;;;;;;4993423;28;20056;-90
2022/09/26 15:21:26;;;;;;;3.15;0.65;;;;;;;;;;4993243;28;20054;-89
2022/09/26 15:23:56;;;;;;;2.83;0.80;;;;;;;;;;4993223;28;20050;-91
2022/09/26 15:26:35;;;;;;;0.60;0.50;;;;;;;;;;4994032;28;20054;-89
2022/09/26 15:29:05;;;;;;;1.00;0.50;;;;;;;;;;4992990;28;20078;-90
2022/09/26 15:31:40;;;;;;;0.35;0.35;;;;;;;;;;4993648;28;20050;-89